Time;durP1;ratioP1;P1;durP2;ratioP2;P2;SDS_P1;SDS_P2;PMS_P1;PMS_P2;Temp;Humidity;BMP_temperature;BMP_pressure;BME280_temperature;BME280_humidity;BME280_pressure;Samples;Min_cycle;Max_cycle;Signal;HPM_P1;HPM_P2
2022/04/24 00:01:11;;;;;;;;;;;23.50;38.50;;;;;;4942701;29;20009;-65
2022/04/24 00:03:39;;;;;;;;;;;23.50;38.50;;;;;;4928026;29;19973;-63
2022/04/24 00:06:07;;;;;;;;;;;23.50;38.60;;;;;;4927834;29;20418;-64
2022/04/24 00:08:34;;;;;;;;;;;23.50;38.60;;;;;;4928280;29;19928;-64
2022/04/24 00:11:00;;;;;;;;;;;23.50;38.60;;;;;;4923853;28;20430;-64
2022/04/24 00:13:31;;;;;;;;;;;23.50;38.60;;;;;;4927179;28;20427;-64
2022/04/24 00:15:59;;;;;;;;;;;23.50;38.70;;;;;;4928098;28;19931;-64
2022/04/24 00:18:26;;;;;;;;;;;23.50;38.70;;;;;;4927803;28;20429;-64
2022/04/24 00:20:53;;;;;;;;;;;23.50;38.70;;;;;;4928205;29;20351;-64
2022/04/24 00:23:20;;;;;;;;;;;23.50;38.60;;;;;;4928121;29;20449;-64
2022/04/24 00:25:47;;;;;;;;;;;23.50;38.60;;;;;;4927425;28;19962;-64
2022/04/24 00:28:14;;;;;;;;;;;23.50;38.60;;;;;;4927544;29;20386;-64
2022/04/24 00:30:41;;;;;;;;;;;23.50;38.60;;;;;;4928212;29;19958;-64
2022/04/24 00:33:08;;;;;;;;;;;23.50;38.60;;;;;;4927626;28;19941;-64
2022/04/24 00:35:35;;;;;;;;;;;23.50;38.50;;;;;;4927530;29;20025;-64
2022/04/24 00:38:02;;;;;;;;;;;23.50;38.50;;;;;;4927188;28;20017;-64
2022/04/24 00:40:29;;;;;;;;;;;23.50;38.50;;;;;;4928281;28;19931;-64
2022/04/24 00:42:56;;;;;;;;;;;23.50;38.50;;;;;;4922920;28;20037;-64
2022/04/24 00:45:23;;;;;;;;;;;23.50;38.50;;;;;;4927633;28;20379;-64
2022/04/24 00:47:50;;;;;;;;;;;23.50;38.50;;;;;;4927366;28;19927;-64
2022/04/24 00:50:17;;;;;;;;;;;23.50;38.50;;;;;;4927880;28;19983;-64
2022/04/24 00:52:46;;;;;;;;;;;23.50;38.50;;;;;;4927410;29;19962;-65
2022/04/24 00:55:13;;;;;;;;;;;23.50;38.50;;;;;;4927717;29;19954;-64
2022/04/24 00:57:43;;;;;;;;;;;23.50;38.60;;;;;;4928031;29;19961;-64
2022/04/24 01:00:10;;;;;;;;;;;23.50;38.60;;;;;;4927781;28;20729;-64
2022/04/24 01:02:37;;;;;;;;;;;23.50;38.60;;;;;;4927426;29;19985;-64
2022/04/24 01:05:07;;;;;;;;;;;23.50;38.60;;;;;;4927294;28;20330;-64
2022/04/24 01:07:34;;;;;;;;;;;23.50;38.60;;;;;;4927620;28;19931;-64
2022/04/24 01:10:01;;;;;;;;;;;23.50;38.60;;;;;;4927548;28;20465;-64
2022/04/24 01:12:28;;;;;;;;;;;23.50;38.60;;;;;;4927426;28;19937;-64
2022/04/24 01:14:54;;;;;;;;;;;23.40;38.60;;;;;;4923560;29;19926;-64
2022/04/24 01:17:22;;;;;;;;;;;23.40;38.60;;;;;;4927449;28;20021;-64
2022/04/24 01:19:49;;;;;;;;;;;23.40;38.60;;;;;;4927463;29;20017;-66
2022/04/24 01:22:19;;;;;;;;;;;23.40;38.70;;;;;;4927755;29;19981;-64
2022/04/24 01:24:46;;;;;;;;;;;23.40;38.70;;;;;;4928756;29;19989;-64
2022/04/24 01:27:13;;;;;;;;;;;23.40;38.70;;;;;;4930187;28;20013;-64
2022/04/24 01:29:41;;;;;;;;;;;23.30;38.70;;;;;;4930225;29;20026;-64
2022/04/24 01:32:08;;;;;;;;;;;23.30;39.30;;;;;;4930394;29;20391;-64
2022/04/24 01:34:35;;;;;;;;;;;23.30;38.70;;;;;;4930238;29;19934;-64
2022/04/24 01:37:03;;;;;;;;;;;23.30;38.80;;;;;;4930239;28;19926;-64
2022/04/24 01:39:30;;;;;;;;;;;23.30;38.80;;;;;;4929527;28;19962;-64
2022/04/24 01:41:57;;;;;;;;;;;23.40;38.80;;;;;;4930678;29;20284;-64
2022/04/24 01:44:24;;;;;;;;;;;23.30;38.80;;;;;;4930275;28;20029;-64
2022/04/24 01:46:52;;;;;;;;;;;23.30;38.70;;;;;;4926151;29;19926;-64
2022/04/24 01:49:19;;;;;;;;;;;23.40;38.80;;;;;;4929961;29;19966;-64
2022/04/24 01:51:48;;;;;;;;;;;23.40;38.70;;;;;;4929690;29;19927;-64
2022/04/24 01:54:16;;;;;;;;;;;23.40;38.70;;;;;;4930156;29;19930;-64
2022/04/24 01:56:43;;;;;;;;;;;23.40;38.70;;;;;;4929444;28;19926;-64
2022/04/24 01:59:10;;;;;;;;;;;23.40;38.70;;;;;;4930099;28;19970;-64
2022/04/24 02:01:37;;;;;;;;;;;23.40;38.70;;;;;;4929920;28;19927;-64
2022/04/24 02:04:04;;;;;;;;;;;23.40;38.70;;;;;;4929903;29;19927;-64
2022/04/24 02:06:32;;;;;;;;;;;23.40;38.70;;;;;;4930175;28;19930;-64
2022/04/24 02:08:59;;;;;;;;;;;23.40;38.70;;;;;;4929664;28;19974;-64
2022/04/24 02:11:26;;;;;;;;;;;23.40;38.70;;;;;;4929549;29;19966;-64
2022/04/24 02:13:53;;;;;;;;;;;23.40;38.70;;;;;;4929652;29;19970;-64
2022/04/24 02:16:20;;;;;;;;;;;23.40;38.70;;;;;;4930240;29;19971;-64
2022/04/24 02:18:48;;;;;;;;;;;23.40;38.70;;;;;;4925569;28;19930;-64
2022/04/24 02:21:15;;;;;;;;;;;23.40;38.70;;;;;;4929556;28;19927;-64
2022/04/24 02:23:41;;;;;;;;;;;23.40;38.70;;;;;;4929923;29;19926;-64
2022/04/24 02:26:08;;;;;;;;;;;23.40;38.70;;;;;;4929454;28;19985;-64
2022/04/24 02:28:36;;;;;;;;;;;23.40;38.70;;;;;;4929088;29;20017;-64
2022/04/24 02:31:04;;;;;;;;;;;23.30;38.60;;;;;;4929351;29;20394;-64
2022/04/24 02:33:31;;;;;;;;;;;23.40;38.70;;;;;;4929560;29;19931;-64
2022/04/24 02:35:58;;;;;;;;;;;23.40;38.70;;;;;;4929351;29;20155;-64
2022/04/24 02:38:24;;;;;;;;;;;23.40;38.70;;;;;;4929557;28;19926;-64
2022/04/24 02:40:51;;;;;;;;;;;23.30;38.60;;;;;;4929165;28;20013;-64
2022/04/24 02:43:19;;;;;;;;;;;23.30;38.70;;;;;;4929547;29;20029;-64
2022/04/24 02:45:46;;;;;;;;;;;23.30;38.70;;;;;;4929102;28;20026;-64
2022/04/24 02:48:13;;;;;;;;;;;23.30;38.70;;;;;;4927905;28;20379;-64
2022/04/24 02:50:40;;;;;;;;;;;23.30;38.80;;;;;;4926579;28;20382;-64
2022/04/24 02:53:07;;;;;;;;;;;23.30;38.80;;;;;;4929351;28;19931;-64
2022/04/24 02:55:35;;;;;;;;;;;23.30;38.80;;;;;;4929267;28;19981;-64
2022/04/24 02:58:02;;;;;;;;;;;23.30;39.40;;;;;;4929362;28;19927;-64
2022/04/24 03:00:39;;;;;;;;;;;23.30;38.90;;;;;;4928879;28;20001;-64
2022/04/24 03:03:07;;;;;;;;;;;23.20;38.90;;;;;;4928598;28;20279;-64
2022/04/24 03:05:35;;;;;;;;;;;23.20;38.90;;;;;;4929637;29;20016;-64
2022/04/24 03:08:02;;;;;;;;;;;23.20;38.90;;;;;;4929101;28;19972;-64
2022/04/24 03:10:29;;;;;;;;;;;23.30;39.00;;;;;;4929250;28;20425;-64
2022/04/24 03:12:56;;;;;;;;;;;23.30;39.00;;;;;;4928975;28;19977;-64
2022/04/24 03:15:23;;;;;;;;;;;23.20;38.90;;;;;;4928662;28;19927;-64
2022/04/24 03:17:54;;;;;;;;;;;23.20;38.90;;;;;;4929086;28;20442;-64
2022/04/24 03:20:22;;;;;;;;;;;23.20;38.90;;;;;;4924882;28;19927;-64
2022/04/24 03:22:50;;;;;;;;;;;23.30;38.90;;;;;;4928678;29;19962;-64
2022/04/24 03:25:17;;;;;;;;;;;23.30;38.90;;;;;;4928347;28;19966;-64
2022/04/24 03:27:44;;;;;;;;;;;23.30;38.90;;;;;;4927831;28;20473;-64
2022/04/24 03:30:11;;;;;;;;;;;23.30;39.40;;;;;;4928324;28;20021;-65
2022/04/24 03:32:38;;;;;;;;;;;23.30;38.80;;;;;;4927463;29;20009;-64
2022/04/24 03:35:06;;;;;;;;;;;23.30;38.80;;;;;;4928540;28;19927;-64
2022/04/24 03:37:33;;;;;;;;;;;23.30;38.80;;;;;;4928780;28;20029;-64
2022/04/24 03:40:01;;;;;;;;;;;23.30;38.80;;;;;;4928772;28;20268;-64
2022/04/24 03:42:28;;;;;;;;;;;23.30;38.80;;;;;;4927218;29;20383;-64
2022/04/24 03:44:55;;;;;;;;;;;23.30;38.80;;;;;;4927795;28;19966;-64
2022/04/24 03:47:22;;;;;;;;;;;23.30;38.80;;;;;;4927852;28;20017;-64
2022/04/24 03:49:50;;;;;;;;;;;23.30;38.80;;;;;;4928296;29;19973;-64
2022/04/24 03:52:17;;;;;;;;;;;23.30;38.80;;;;;;4923585;28;20434;-65
2022/04/24 03:54:44;;;;;;;;;;;23.30;38.80;;;;;;4928234;29;19927;-64
2022/04/24 03:57:11;;;;;;;;;;;23.30;38.80;;;;;;4927023;29;19979;-64
2022/04/24 03:59:38;;;;;;;;;;;23.30;38.80;;;;;;4928265;28;20399;-64
2022/04/24 04:02:05;;;;;;;;;;;23.30;38.70;;;;;;4927702;28;20357;-63
2022/04/24 04:04:34;;;;;;;;;;;23.30;38.70;;;;;;4928432;29;19927;-63
2022/04/24 04:07:01;;;;;;;;;;;23.30;38.70;;;;;;4928656;29;19946;-64
2022/04/24 04:09:28;;;;;;;;;;;23.30;39.00;;;;;;4928378;28;20359;-64
2022/04/24 04:11:56;;;;;;;;;;;23.30;38.70;;;;;;4927266;29;20018;-64
2022/04/24 04:14:23;;;;;;;;;;;23.30;38.70;;;;;;4927353;28;20017;-64
2022/04/24 04:16:51;;;;;;;;;;;23.30;38.70;;;;;;4927379;29;19985;-64
2022/04/24 04:19:18;;;;;;;;;;;23.30;38.70;;;;;;4927957;29;19962;-65
2022/04/24 04:21:45;;;;;;;;;;;23.30;38.80;;;;;;4927884;28;20577;-64
2022/04/24 04:24:12;;;;;;;;;;;23.30;38.80;;;;;;4924424;28;19966;-63
2022/04/24 04:26:40;;;;;;;;;;;23.20;38.80;;;;;;4927970;29;19927;-64
2022/04/24 04:29:08;;;;;;;;;;;23.30;38.90;;;;;;4928072;29;20398;-64
2022/04/24 04:31:35;;;;;;;;;;;23.30;38.90;;;;;;4928179;28;19927;-64
2022/04/24 04:34:02;;;;;;;;;;;23.30;38.90;;;;;;4927940;29;20017;-64
2022/04/24 04:36:29;;;;;;;;;;;23.30;38.90;;;;;;4927440;29;19938;-64
2022/04/24 04:38:56;;;;;;;;;;;23.30;38.90;;;;;;4927841;29;19927;-64
2022/04/24 04:41:24;;;;;;;;;;;23.30;38.80;;;;;;4927651;29;20018;-64
2022/04/24 04:43:51;;;;;;;;;;;23.30;38.80;;;;;;4927943;29;20355;-64
2022/04/24 04:46:18;;;;;;;;;;;23.30;38.70;;;;;;4927572;28;19931;-64
2022/04/24 04:48:45;;;;;;;;;;;23.30;38.70;;;;;;4927697;28;19974;-64
2022/04/24 04:51:12;;;;;;;;;;;23.40;38.70;;;;;;4927564;28;19988;-63
2022/04/24 04:53:40;;;;;;;;;;;23.40;39.20;;;;;;4927966;28;19931;-64
2022/04/24 04:56:07;;;;;;;;;;;23.40;38.60;;;;;;4923272;29;20388;-63
2022/04/24 04:58:34;;;;;;;;;;;23.50;38.60;;;;;;4927845;28;20406;-64
2022/04/24 05:01:02;;;;;;;;;;;23.50;38.60;;;;;;4930833;28;20418;-63
2022/04/24 05:03:30;;;;;;;;;;;23.50;38.50;;;;;;4930820;29;19931;-64
2022/04/24 05:05:58;;;;;;;;;;;23.50;38.40;;;;;;4929510;29;19927;-64
2022/04/24 05:08:25;;;;;;;;;;;23.50;38.40;;;;;;4930480;29;19935;-63
2022/04/24 05:10:52;;;;;;;;;;;23.60;38.40;;;;;;4930963;28;20440;-64
2022/04/24 05:13:20;;;;;;;;;;;23.60;38.40;;;;;;4930718;29;19977;-63
2022/04/24 05:15:47;;;;;;;;;;;23.60;38.30;;;;;;4930360;28;19934;-64
2022/04/24 05:18:15;;;;;;;;;;;23.70;38.30;;;;;;4930848;28;19967;-64
2022/04/24 05:20:43;;;;;;;;;;;23.70;38.20;;;;;;4930673;28;19933;-64
2022/04/24 05:23:10;;;;;;;;;;;23.70;38.10;;;;;;4930642;28;19927;-63
2022/04/24 05:25:37;;;;;;;;;;;23.80;38.00;;;;;;4929098;28;19934;-63
2022/04/24 05:28:05;;;;;;;;;;;23.70;37.90;;;;;;4925859;29;19977;-63
2022/04/24 05:30:33;;;;;;;;;;;23.80;38.00;;;;;;4930509;28;19974;-64
2022/04/24 05:33:00;;;;;;;;;;;23.80;37.90;;;;;;4930446;28;20363;-63
2022/04/24 05:35:27;;;;;;;;;;;23.90;38.00;;;;;;4930729;28;19927;-64
2022/04/24 05:37:54;;;;;;;;;;;23.80;37.90;;;;;;4930567;28;20331;-64
2022/04/24 05:40:21;;;;;;;;;;;23.90;38.00;;;;;;4930616;28;20014;-64
2022/04/24 05:42:56;;;;;;;;;;;23.90;38.00;;;;;;4930597;28;20039;-64
2022/04/24 05:45:24;;;;;;;;;;;23.90;38.00;;;;;;4930232;29;19974;-64
2022/04/24 05:47:54;;;;;;;;;;;23.90;38.00;;;;;;4930299;28;20434;-64
2022/04/24 05:50:23;;;;;;;;;;;24.00;38.00;;;;;;4930276;29;19927;-64
2022/04/24 05:52:55;;;;;;;;;;;24.00;38.00;;;;;;4930263;28;19927;-64
2022/04/24 05:55:22;;;;;;;;;;;24.00;38.00;;;;;;4930650;28;19926;-64
2022/04/24 05:57:49;;;;;;;;;;;24.10;38.00;;;;;;4925875;28;20003;-64
2022/04/24 06:00:17;;;;;;;;;;;24.10;37.90;;;;;;4930448;28;19927;-63
2022/04/24 06:02:49;;;;;;;;;;;24.10;37.90;;;;;;4929668;29;19931;-64
2022/04/24 06:05:16;;;;;;;;;;;24.10;37.80;;;;;;4930163;29;19973;-63
2022/04/24 06:07:43;;;;;;;;;;;24.20;37.80;;;;;;4930103;29;20021;-64
2022/04/24 06:10:11;;;;;;;;;;;24.30;37.80;;;;;;4929509;29;20371;-63
2022/04/24 06:12:46;;;;;;;;;;;24.30;37.70;;;;;;4929903;28;20265;-64
2022/04/24 06:15:15;;;;;;;;;;;24.30;37.70;;;;;;4929756;28;19954;-64
2022/04/24 06:17:43;;;;;;;;;;;24.30;37.60;;;;;;4930093;29;20643;-64
2022/04/24 06:20:10;;;;;;;;;;;24.40;37.70;;;;;;4929874;29;19927;-63
2022/04/24 06:22:41;;;;;;;;;;;24.40;37.60;;;;;;4929616;29;19981;-64
2022/04/24 06:25:08;;;;;;;;;;;24.40;38.20;;;;;;4929703;28;19974;-63
2022/04/24 06:27:35;;;;;;;;;;;24.50;37.60;;;;;;4929781;28;19977;-63
2022/04/24 06:30:02;;;;;;;;;;;24.50;37.50;;;;;;4925810;29;19970;-63
2022/04/24 06:32:29;;;;;;;;;;;24.50;37.50;;;;;;4929436;28;19982;-64
2022/04/24 06:34:56;;;;;;;;;;;24.50;37.40;;;;;;4929278;28;19957;-64
2022/04/24 06:37:23;;;;;;;;;;;24.60;37.40;;;;;;4929387;29;20089;-64
2022/04/24 06:39:50;;;;;;;;;;;24.60;37.30;;;;;;4929644;28;20334;-64
2022/04/24 06:42:17;;;;;;;;;;;24.70;37.30;;;;;;4929129;29;19980;-64
2022/04/24 06:44:44;;;;;;;;;;;24.70;37.20;;;;;;4929837;28;19949;-65
2022/04/24 06:47:12;;;;;;;;;;;24.70;37.00;;;;;;4930004;29;19972;-64
2022/04/24 06:49:39;;;;;;;;;;;24.70;36.90;;;;;;4929344;28;19941;-64
2022/04/24 06:52:06;;;;;;;;;;;24.80;36.90;;;;;;4929368;29;20445;-64
2022/04/24 06:54:33;;;;;;;;;;;24.80;36.80;;;;;;4930036;28;20017;-64
2022/04/24 06:57:01;;;;;;;;;;;24.90;36.80;;;;;;4929565;29;19930;-64
2022/04/24 06:59:28;;;;;;;;;;;24.90;36.70;;;;;;4929001;28;19993;-64
2022/04/24 07:01:55;;;;;;;;;;;24.90;36.60;;;;;;4924962;29;20359;-64
2022/04/24 07:04:22;;;;;;;;;;;24.90;36.50;;;;;;4928969;29;20294;-64
2022/04/24 07:06:49;;;;;;;;;;;25.00;37.00;;;;;;4929307;28;20021;-64
2022/04/24 07:09:16;;;;;;;;;;;25.00;36.30;;;;;;4929254;28;19981;-64
2022/04/24 07:11:44;;;;;;;;;;;25.00;36.20;;;;;;4928867;29;20030;-64
2022/04/24 07:14:10;;;;;;;;;;;25.10;36.10;;;;;;4928537;29;19973;-64
2022/04/24 07:16:37;;;;;;;;;;;25.10;36.00;;;;;;4929040;29;19927;-64
2022/04/24 07:19:05;;;;;;;;;;;25.10;36.00;;;;;;4929231;29;19926;-64
2022/04/24 07:21:32;;;;;;;;;;;25.20;36.00;;;;;;4928295;29;19985;-64
2022/04/24 07:23:59;;;;;;;;;;;25.20;35.90;;;;;;4928390;29;20376;-64
2022/04/24 07:26:26;;;;;;;;;;;25.30;36.00;;;;;;4929166;28;19927;-64
2022/04/24 07:28:53;;;;;;;;;;;25.30;35.90;;;;;;4927161;29;19927;-64
2022/04/24 07:31:20;;;;;;;;;;;25.30;35.80;;;;;;4927531;29;19966;-63
2022/04/24 07:33:47;;;;;;;;;;;25.30;35.70;;;;;;4925885;29;20013;-64
2022/04/24 07:36:14;;;;;;;;;;;25.40;35.70;;;;;;4928400;28;20369;-64
2022/04/24 07:38:42;;;;;;;;;;;25.40;35.70;;;;;;4928364;29;19926;-64
2022/04/24 07:41:08;;;;;;;;;;;25.40;35.60;;;;;;4928795;29;19927;-64
2022/04/24 07:43:35;;;;;;;;;;;25.40;35.60;;;;;;4928584;29;20354;-64
2022/04/24 07:46:03;;;;;;;;;;;25.50;35.50;;;;;;4928509;29;20017;-64
2022/04/24 07:48:30;;;;;;;;;;;25.50;35.50;;;;;;4928644;29;19954;-64
2022/04/24 07:50:57;;;;;;;;;;;25.60;35.40;;;;;;4928599;29;19927;-65
2022/04/24 07:53:24;;;;;;;;;;;25.60;35.30;;;;;;4928225;29;19931;-64
2022/04/24 07:55:51;;;;;;;;;;;25.70;35.30;;;;;;4928594;28;19973;-64
2022/04/24 07:58:19;;;;;;;;;;;25.70;35.20;;;;;;4928434;28;19927;-64
2022/04/24 08:00:47;;;;;;;;;;;25.70;35.10;;;;;;4928462;28;20391;-64
2022/04/24 08:03:15;;;;;;;;;;;25.70;35.10;;;;;;4923707;29;20010;-64
2022/04/24 08:05:44;;;;;;;;;;;25.70;35.10;;;;;;4928052;28;20014;-64
2022/04/24 08:08:14;;;;;;;;;;;25.80;35.10;;;;;;4927030;29;19927;-64
2022/04/24 08:10:44;;;;;;;;;;;25.70;35.00;;;;;;4927712;28;19926;-64
2022/04/24 08:13:11;;;;;;;;;;;25.70;35.10;;;;;;4927904;28;20024;-64
2022/04/24 08:15:41;;;;;;;;;;;25.70;35.20;;;;;;4927356;29;20526;-64
2022/04/24 08:18:09;;;;;;;;;;;25.70;35.20;;;;;;4928403;29;20677;-64
2022/04/24 08:20:37;;;;;;;;;;;25.70;35.20;;;;;;4928079;28;20366;-64
2022/04/24 08:23:05;;;;;;;;;;;25.60;35.20;;;;;;4927462;29;19939;-64
2022/04/24 08:25:34;;;;;;;;;;;25.60;35.20;;;;;;4928333;28;19962;-64
2022/04/24 08:28:04;;;;;;;;;;;25.60;35.20;;;;;;4928153;28;20406;-64
2022/04/24 08:30:33;;;;;;;;;;;25.60;35.20;;;;;;4928068;28;19974;-64
2022/04/24 08:33:00;;;;;;;;;;;25.60;35.20;;;;;;4928779;29;19978;-65
2022/04/24 08:35:27;;;;;;;;;;;25.70;35.30;;;;;;4926836;28;19935;-65
2022/04/24 08:37:54;;;;;;;;;;;25.70;35.20;;;;;;4931309;29;20370;-64
2022/04/24 08:40:24;;;;;;;;;;;25.70;35.20;;;;;;4931024;29;19927;-64
2022/04/24 08:42:52;;;;;;;;;;;25.70;35.10;;;;;;4930892;29;20022;-64
2022/04/24 08:45:22;;;;;;;;;;;25.80;35.10;;;;;;4931605;28;19950;-64
2022/04/24 08:47:51;;;;;;;;;;;25.80;35.10;;;;;;4931748;28;20013;-65
2022/04/24 08:50:18;;;;;;;;;;;25.80;35.10;;;;;;4930894;29;19927;-64
2022/04/24 08:52:45;;;;;;;;;;;25.80;35.00;;;;;;4930999;28;19934;-64
2022/04/24 08:55:12;;;;;;;;;;;25.80;35.10;;;;;;4930531;28;20025;-64
2022/04/24 08:57:39;;;;;;;;;;;25.80;35.10;;;;;;4931189;29;19970;-64
2022/04/24 09:00:08;;;;;;;;;;;25.70;35.20;;;;;;4931067;29;19933;-65
2022/04/24 09:02:51;;;;;;;;;;;25.70;35.20;;;;;;4930835;29;19973;-64
2022/04/24 09:05:20;;;;;;;;;;;25.70;35.30;;;;;;4930763;28;20025;-64
2022/04/24 09:07:47;;;;;;;;;;;25.70;35.30;;;;;;4927160;28;19958;-64
2022/04/24 09:10:50;;;;;;;;;;;25.70;35.30;;;;;;4930875;29;19927;-64
2022/04/24 09:13:25;;;;;;;;;;;25.60;35.20;;;;;;4929900;29;19973;-64
2022/04/24 09:15:56;;;;;;;;;;;25.70;35.30;;;;;;4930777;29;20041;-64
2022/04/24 09:18:23;;;;;;;;;;;25.70;35.20;;;;;;4930824;29;19981;-64
2022/04/24 09:20:54;;;;;;;;;;;25.70;35.20;;;;;;4930654;28;20021;-64
2022/04/24 09:23:21;;;;;;;;;;;25.70;35.10;;;;;;4930593;28;19974;-64
2022/04/24 09:25:48;;;;;;;;;;;25.70;35.10;;;;;;4930642;28;20017;-64
2022/04/24 09:28:15;;;;;;;;;;;25.70;35.10;;;;;;4930677;29;20291;-64
2022/04/24 09:30:48;;;;;;;;;;;25.70;35.10;;;;;;4930500;28;19927;-64
2022/04/24 09:33:16;;;;;;;;;;;25.70;35.10;;;;;;4930265;28;19933;-64
2022/04/24 09:35:43;;;;;;;;;;;25.80;35.10;;;;;;4929492;29;19927;-64
2022/04/24 09:38:13;;;;;;;;;;;25.80;35.00;;;;;;4926202;28;19927;-64
2022/04/24 09:40:44;;;;;;;;;;;25.90;35.00;;;;;;4930459;28;19938;-64
2022/04/24 09:43:12;;;;;;;;;;;25.90;34.90;;;;;;4930537;29;20374;-65
2022/04/24 09:45:41;;;;;;;;;;;26.00;34.80;;;;;;4929176;28;19927;-64
2022/04/24 09:48:18;;;;;;;;;;;26.00;34.70;;;;;;4930144;28;20421;-65
2022/04/24 09:50:45;;;;;;;;;;;26.10;34.70;;;;;;4930160;29;19953;-64
2022/04/24 09:53:14;;;;;;;;;;;26.10;34.70;;;;;;4929592;28;19927;-66
2022/04/24 09:55:43;;;;;;;;;;;26.10;34.60;;;;;;4930201;29;20346;-64
2022/04/24 09:58:13;;;;;;;;;;;26.10;34.60;;;;;;4930086;28;20057;-64
2022/04/24 10:00:41;;;;;;;;;;;26.20;34.60;;;;;;4929928;29;19981;-64
2022/04/24 10:03:09;;;;;;;;;;;26.20;34.60;;;;;;4930143;28;20296;-64
2022/04/24 10:05:38;;;;;;;;;;;26.20;34.60;;;;;;4930420;28;19927;-64
2022/04/24 10:08:06;;;;;;;;;;;26.10;34.60;;;;;;4930015;29;19973;-64
2022/04/24 10:10:33;;;;;;;;;;;26.10;34.60;;;;;;4925825;28;19962;-64
2022/04/24 10:13:00;;;;;;;;;;;26.10;34.70;;;;;;4930071;28;19966;-64
2022/04/24 10:15:29;;;;;;;;;;;26.10;34.70;;;;;;4929438;28;20426;-64
2022/04/24 10:18:01;;;;;;;;;;;26.10;34.80;;;;;;4929159;29;19966;-64
2022/04/24 10:20:48;;;;;;;;;;;26.10;34.80;;;;;;4928480;29;19962;-64
2022/04/24 10:23:26;;;;;;;;;;;26.00;34.80;;;;;;4929880;29;20013;-64
2022/04/24 10:25:54;;;;;;;;;;;26.00;34.90;;;;;;4929717;28;19981;-64
2022/04/24 10:28:21;;;;;;;;;;;26.00;34.80;;;;;;4929427;29;20037;-65
2022/04/24 10:30:58;;;;;;;;;;;26.00;34.80;;;;;;4929533;28;19927;-64
2022/04/24 10:33:28;;;;;;;;;;;26.00;34.80;;;;;;4929494;28;19973;-64
2022/04/24 10:36:01;;;;;;;;;;;26.00;34.90;;;;;;4928952;28;19950;-64
2022/04/24 10:38:29;;;;;;;;;;;26.00;34.90;;;;;;4929783;28;20356;-64
2022/04/24 10:41:00;;;;;;;;;;;26.00;34.90;;;;;;4926082;28;19970;-64
2022/04/24 10:43:38;;;;;;;;;;;26.00;34.80;;;;;;4929450;28;19926;-64
2022/04/24 10:46:19;;;;;;;;;;;26.00;34.80;;;;;;4929493;28;20330;-64
2022/04/24 10:48:49;;;;;;;;;;;26.10;34.80;;;;;;4929516;28;19927;-64
2022/04/24 10:51:27;;;;;;;;;;;26.10;34.80;;;;;;4929665;29;20295;-64
2022/04/24 10:53:59;;;;;;;;;;;26.10;34.80;;;;;;4929314;29;20363;-64
2022/04/24 10:56:29;;;;;;;;;;;26.10;34.80;;;;;;4929810;29;20034;-64
2022/04/24 10:59:10;;;;;;;;;;;26.10;35.40;;;;;;4929450;29;19973;-64
2022/04/24 11:01:40;;;;;;;;;;;26.20;34.90;;;;;;4929639;29;19981;-64
2022/04/24 11:04:08;;;;;;;;;;;26.10;34.80;;;;;;4928993;28;19927;-64
2022/04/24 11:06:36;;;;;;;;;;;26.10;34.80;;;;;;4929328;28;20430;-64
2022/04/24 11:09:08;;;;;;;;;;;26.10;34.90;;;;;;4929071;28;19966;-64
2022/04/24 11:11:46;;;;;;;;;;;26.10;34.90;;;;;;4929308;28;20349;-65
2022/04/24 11:14:17;;;;;;;;;;;26.10;34.90;;;;;;4925655;29;19927;-64
2022/04/24 11:16:49;;;;;;;;;;;26.20;34.90;;;;;;4928008;29;19934;-64
2022/04/24 11:19:20;;;;;;;;;;;26.20;34.90;;;;;;4928988;28;19978;-65
2022/04/24 11:21:47;;;;;;;;;;;26.20;34.80;;;;;;4926674;29;20412;-64
2022/04/24 11:24:17;;;;;;;;;;;26.20;34.70;;;;;;4929481;28;19949;-64
2022/04/24 11:26:50;;;;;;;;;;;26.30;34.70;;;;;;4928743;28;19978;-64
2022/04/24 11:29:18;;;;;;;;;;;26.30;34.70;;;;;;4928985;29;19988;-65
2022/04/24 11:31:49;;;;;;;;;;;26.40;34.70;;;;;;4928725;29;20391;-65
2022/04/24 11:34:18;;;;;;;;;;;26.40;34.70;;;;;;4929336;28;19938;-65
2022/04/24 11:36:46;;;;;;;;;;;26.40;34.60;;;;;;4927734;29;19927;-65
2022/04/24 11:39:13;;;;;;;;;;;26.50;34.60;;;;;;4928565;28;19981;-65
2022/04/24 11:41:43;;;;;;;;;;;26.50;34.60;;;;;;4928441;28;19954;-65
2022/04/24 11:50:16;;;;;;;;;;;26.50;34.40;;;;;;4928365;29;19981;-65
2022/04/24 11:53:03;;;;;;;;;;;26.50;34.40;;;;;;4928389;29;19952;-66
2022/04/24 11:58:21;;;;;;;;;;;26.60;34.40;;;;;;4928730;28;19977;-65
2022/04/24 12:00:48;;;;;;;;;;;26.60;35.00;;;;;;4928404;29;20446;-65
2022/04/24 12:03:15;;;;;;;;;;;26.50;34.30;;;;;;4928645;28;20061;-65
2022/04/24 12:05:43;;;;;;;;;;;26.50;34.40;;;;;;4928077;28;19930;-66
2022/04/24 12:08:12;;;;;;;;;;;26.50;34.50;;;;;;4927897;28;19927;-65
2022/04/24 12:10:43;;;;;;;;;;;26.50;34.50;;;;;;4928721;29;20283;-65
2022/04/24 12:13:10;;;;;;;;;;;26.50;34.40;;;;;;4926963;29;19930;-65
2022/04/24 12:15:38;;;;;;;;;;;26.60;34.40;;;;;;4924080;28;19927;-66
2022/04/24 12:18:05;;;;;;;;;;;26.60;34.40;;;;;;4928289;29;19973;-65
2022/04/24 12:20:37;;;;;;;;;;;26.60;34.30;;;;;;4928139;28;19926;-65
2022/04/24 12:23:15;;;;;;;;;;;26.60;34.30;;;;;;4927892;29;20014;-66
2022/04/24 12:25:48;;;;;;;;;;;26.60;34.40;;;;;;4927874;28;20022;-65
2022/04/24 12:28:29;;;;;;;;;;;26.60;34.40;;;;;;4928089;28;19927;-65
2022/04/24 12:30:57;;;;;;;;;;;26.60;34.40;;;;;;4927768;29;19927;-66
2022/04/24 12:33:24;;;;;;;;;;;26.60;34.40;;;;;;4927849;28;19953;-66
2022/04/24 12:35:51;;;;;;;;;;;26.50;34.60;;;;;;4927848;28;20010;-66
2022/04/24 12:38:19;;;;;;;;;;;26.50;34.50;;;;;;4928112;29;19927;-66
2022/04/24 12:40:59;;;;;;;;;;;26.50;34.50;;;;;;4928281;28;19966;-66
2022/04/24 12:43:28;;;;;;;;;;;26.50;34.50;;;;;;4927810;28;20010;-65
2022/04/24 12:45:55;;;;;;;;;;;26.50;34.40;;;;;;4927060;29;20355;-66
2022/04/24 12:48:23;;;;;;;;;;;26.50;34.30;;;;;;4923678;28;19927;-66
2022/04/24 12:50:51;;;;;;;;;;;26.50;34.20;;;;;;4927862;28;20425;-66
2022/04/24 12:53:18;;;;;;;;;;;26.50;34.10;;;;;;4928110;29;19966;-66
2022/04/24 12:55:46;;;;;;;;;;;26.60;34.20;;;;;;4927962;29;19962;-66
2022/04/24 12:58:16;;;;;;;;;;;26.60;34.10;;;;;;4927782;28;19962;-65
2022/04/24 13:00:45;;;;;;;;;;;26.60;34.10;;;;;;4927365;28;19970;-66
2022/04/24 13:03:13;;;;;;;;;;;26.60;34.00;;;;;;4927454;29;19973;-66
2022/04/24 13:05:42;;;;;;;;;;;26.60;34.00;;;;;;4927512;29;19931;-65
2022/04/24 13:08:24;;;;;;;;;;;26.60;34.00;;;;;;4926492;29;19927;-66
2022/04/24 13:10:51;;;;;;;;;;;26.60;33.90;;;;;;4927550;28;19942;-66
2022/04/24 13:13:18;;;;;;;;;;;26.60;33.90;;;;;;4927600;28;20449;-65
2022/04/24 13:18:07;;;;;;;;;;;26.50;33.80;;;;;;4927697;28;19953;-66
2022/04/24 13:18:37;;;;;;;;;;;26.50;33.90;;;;;;4923149;29;19927;-65
2022/04/24 13:21:04;;;;;;;;;;;26.50;33.90;;;;;;4929666;28;19970;-65
2022/04/24 13:23:32;;;;;;;;;;;26.50;34.00;;;;;;4930538;29;19970;-65
2022/04/24 13:25:58;;;;;;;;;;;26.40;34.00;;;;;;4930054;28;20375;-65
2022/04/24 13:28:25;;;;;;;;;;;26.40;34.00;;;;;;4930432;28;20322;-64
2022/04/24 13:30:52;;;;;;;;;;;26.40;34.10;;;;;;4929611;28;20275;-65
2022/04/24 13:33:20;;;;;;;;;;;26.30;34.00;;;;;;4929336;28;19927;-64
2022/04/24 13:35:50;;;;;;;;;;;26.30;34.00;;;;;;4930378;28;19933;-65
2022/04/24 13:38:20;;;;;;;;;;;26.30;34.00;;;;;;4930444;29;19985;-64
2022/04/24 13:40:49;;;;;;;;;;;26.30;34.10;;;;;;4930838;29;19985;-64
2022/04/24 13:43:16;;;;;;;;;;;26.30;34.10;;;;;;4930702;28;20059;-65
2022/04/24 13:45:47;;;;;;;;;;;26.30;34.10;;;;;;4930435;28;20009;-64
2022/04/24 13:48:24;;;;;;;;;;;26.30;34.20;;;;;;4930811;28;19973;-64
2022/04/24 13:50:54;;;;;;;;;;;26.30;34.20;;;;;;4937682;28;19992;-65
2022/04/24 13:53:22;;;;;;;;;;;26.20;34.10;;;;;;4949457;28;19938;-65
2022/04/24 13:55:49;;;;;;;;;;;26.20;34.20;;;;;;4948754;29;20362;-65
2022/04/24 13:58:16;;;;;;;;;;;26.20;34.20;;;;;;4949361;29;20338;-64
2022/04/24 14:00:44;;;;;;;;;;;26.20;34.20;;;;;;4948648;29;19972;-64
2022/04/24 14:03:13;;;;;;;;;;;26.20;34.20;;;;;;4949237;29;19942;-64
2022/04/24 14:05:40;;;;;;;;;;;26.20;34.20;;;;;;4945379;28;19972;-64
2022/04/24 14:08:19;;;;;;;;;;;26.20;34.20;;;;;;4939335;28;20021;-65
2022/04/24 14:10:47;;;;;;;;;;;26.20;34.20;;;;;;4929822;28;19943;-64
2022/04/24 14:13:14;;;;;;;;;;;26.20;34.20;;;;;;4912976;29;19982;-64
2022/04/24 14:15:41;;;;;;;;;;;26.30;34.20;;;;;;4929483;29;20088;-65
2022/04/24 14:18:08;;;;;;;;;;;26.20;34.20;;;;;;4929625;28;19927;-65
2022/04/24 14:20:35;;;;;;;;;;;26.20;34.20;;;;;;4929758;28;19977;-64
2022/04/24 14:23:20;;;;;;;;;;;26.20;34.20;;;;;;4925017;29;19933;-64
2022/04/24 14:25:48;;;;;;;;;;;26.20;34.20;;;;;;4944815;28;19941;-64
2022/04/24 14:28:16;;;;;;;;;;;26.20;34.20;;;;;;4949228;29;19927;-64
2022/04/24 14:30:45;;;;;;;;;;;26.20;34.20;;;;;;4933324;29;20015;-64
2022/04/24 14:33:13;;;;;;;;;;;26.20;34.20;;;;;;4929330;28;19927;-64